Estación Meteorológica Peña el Pijo (Robertgarden) [ 02/03/23 04:34:16 CET ]

Fecha Hora Presion(HPa) Temp (°C) Humedad % Rocio (°C) Viento ( m/s) Direccion Lluvia 1Hora(mm) Lluvia 24H(mm) LLuvia Total(mm)
2010-Feb-04 01:01:17 1005.000 2.2 84 -0.3         69.41
2010-Feb-04 02:03:16 1004.400 1.3 86 -0.8         69.41
2010-Feb-04 03:01:14 1004.300 1.1 88 -0.7         69.41
2010-Feb-04 04:01:18 1003.700 2.1 89 0.4         69.41
2010-Feb-04 05:01:17 1002.600 2.9 89 1.2         69.41
2010-Feb-04 06:01:16 1002.100 3.3 90 1.8     0.51 0.51 69.93
2010-Feb-04 07:01:12 1001.100 3.5 91 2.1       0.51 69.93
2010-Feb-04 08:01:14 1000.700 3.8 92 2.6       0.51 69.93
2010-Feb-04 09:01:18 1001.700 5.0 92 3.8       0.51 69.93
2010-Feb-04 10:01:12 1002.200 4.5 93 3.5     1.03 1.55 70.96
2010-Feb-04 11:01:18 1003.000 5.9 93 4.8     0.51 2.07 71.48
2010-Feb-04 12:01:20 1003.200 8.8 90 7.3       2.07 71.48
2010-Feb-04 13:01:15 1003.600 10.3 83 7.5       2.07 71.48
2010-Feb-04 14:01:13 1003.800 10.8 81 7.7       2.07 71.48
2010-Feb-04 15:01:13 1003.800 10.7 79 7.2       2.07 71.48
2010-Feb-04 16:01:15 1004.700 11.2 77 7.3       2.07 71.48
2010-Feb-04 17:01:16 1005.000 10.5 81 7.4       2.07 71.48
2010-Feb-04 18:01:17 1005.100 9.9 82 6.9       2.07 71.48
2010-Feb-04 19:01:12 1005.800 10.1 81 7.0       2.07 71.48
2010-Feb-04 20:01:14 1006.400 10.1 81 7.0 1.3 SSE   2.07 71.48
2010-Feb-04 21:01:13 1007.000 9.9 72 5.1       2.07 71.48
2010-Feb-04 22:01:13 1007.200 9.8 70 4.6 1.7 SE   2.07 71.48
2010-Feb-04 23:01:18 1007.200 9.5 72 4.7 2.1 S   2.07 71.48

Temperatura Máxima:11°    Temperatura Mínima:
Presión Máxima:1007.200 Hpa    Presión Mínima:1000.700 Hpa


Volver